createdAt,value
2017-05-16T00:01:56.779Z,32.97
2017-05-16T00:04:25.281Z,28.75
2017-05-16T00:06:53.822Z,23.37
2017-05-16T00:09:22.329Z,26.28
2017-05-16T00:11:50.834Z,29.38
2017-05-16T00:14:19.381Z,31.42
2017-05-16T00:16:47.884Z,30.32
2017-05-16T00:19:16.395Z,34.03
2017-05-16T00:21:44.935Z,31.07
2017-05-16T00:24:13.443Z,31.15
2017-05-16T00:26:41.942Z,29.07
2017-05-16T00:29:10.504Z,31.53
2017-05-16T00:31:39.006Z,32.57
2017-05-16T00:34:07.531Z,36.00
2017-05-16T00:36:36.082Z,27.67
2017-05-16T00:39:04.595Z,29.73
2017-05-16T00:41:33.097Z,25.33
2017-05-16T00:44:01.647Z,23.78
2017-05-16T00:46:30.152Z,24.50
2017-05-16T00:48:58.660Z,20.50
2017-05-16T00:51:27.195Z,21.53
2017-05-16T00:53:55.702Z,23.42
2017-05-16T00:56:24.281Z,17.70
2017-05-16T00:58:52.783Z,21.22
2017-05-16T01:01:21.283Z,17.63
2017-05-16T01:03:49.836Z,21.20
2017-05-16T01:06:18.340Z,17.92
2017-05-16T01:08:46.846Z,24.13
2017-05-16T01:11:15.399Z,21.35
2017-05-16T01:13:43.908Z,22.32
2017-05-16T01:16:12.416Z,20.57
2017-05-16T01:18:40.959Z,21.32
2017-05-16T01:21:09.464Z,41.78
2017-05-16T01:23:37.972Z,23.50
2017-05-16T01:26:06.516Z,22.72
2017-05-16T01:28:35.022Z,24.32
2017-05-16T01:31:03.572Z,23.95
2017-05-16T01:33:32.072Z,27.48
2017-05-16T01:36:00.580Z,25.85
2017-05-16T01:38:29.126Z,27.15
2017-05-16T01:40:57.643Z,24.93
2017-05-16T01:43:26.140Z,29.78
2017-05-16T01:45:54.677Z,24.15
2017-05-16T01:48:23.225Z,27.47
2017-05-16T01:50:51.791Z,28.92
2017-05-16T01:53:20.294Z,29.12
2017-05-16T01:55:48.846Z,25.52
2017-05-16T01:58:17.348Z,24.03
2017-05-16T02:00:45.880Z,28.08
2017-05-16T02:03:14.428Z,24.15
2017-05-16T02:05:42.937Z,27.57
2017-05-16T02:08:11.436Z,22.57
2017-05-16T02:10:39.980Z,22.52
2017-05-16T02:13:08.520Z,20.95
2017-05-16T02:15:37.031Z,23.58
2017-05-16T02:18:05.531Z,22.73
2017-05-16T02:20:34.075Z,24.25
2017-05-16T02:23:02.576Z,26.73
2017-05-16T02:25:31.076Z,22.88
2017-05-16T02:27:59.621Z,23.93
2017-05-16T02:30:28.129Z,23.35
2017-05-16T02:32:56.627Z,30.32
2017-05-16T02:35:25.168Z,24.33
2017-05-16T02:37:53.673Z,25.78
2017-05-16T02:40:22.222Z,27.80
2017-05-16T02:42:50.723Z,28.08
2017-05-16T02:45:19.230Z,29.00
2017-05-16T02:47:47.780Z,31.53
2017-05-16T02:50:16.283Z,32.47
2017-05-16T02:52:44.800Z,31.65
2017-05-16T02:55:13.349Z,30.47
2017-05-16T02:57:41.853Z,33.97
2017-05-16T03:00:10.357Z,31.28
2017-05-16T03:02:38.902Z,33.88
2017-05-16T03:05:07.412Z,38.33
2017-05-16T03:07:35.913Z,36.90
2017-05-16T03:10:04.463Z,36.05
2017-05-16T03:12:32.967Z,34.15
2017-05-16T03:15:01.507Z,30.18
2017-05-16T03:17:30.012Z,35.75
2017-05-16T03:19:58.524Z,32.22
2017-05-16T03:22:27.072Z,36.42
2017-05-16T03:24:55.581Z,37.67
2017-05-16T03:27:24.085Z,37.37
2017-05-16T03:29:52.628Z,44.30
2017-05-16T03:32:21.131Z,32.82
2017-05-16T03:34:49.641Z,35.60
2017-05-16T03:37:18.220Z,33.62
2017-05-16T03:39:46.735Z,32.18
2017-05-16T03:42:15.243Z,31.35
2017-05-16T03:44:43.830Z,34.95
2017-05-16T03:47:12.339Z,36.60
2017-05-16T03:49:40.842Z,34.40
2017-05-16T03:52:09.430Z,34.03
2017-05-16T03:54:37.932Z,30.08
2017-05-16T03:57:06.431Z,29.28
2017-05-16T03:59:34.976Z,20.58
2017-05-16T04:02:03.487Z,25.37
2017-05-16T04:04:31.998Z,20.00
2017-05-16T04:07:00.572Z,20.52
2017-05-16T04:09:29.092Z,23.15
2017-05-16T04:11:57.599Z,24.73
2017-05-16T04:14:26.262Z,24.05
2017-05-16T04:16:54.767Z,26.18
2017-05-16T04:19:23.268Z,24.90
2017-05-16T04:21:51.813Z,27.43
2017-05-16T04:24:20.317Z,37.67
2017-05-16T04:26:48.823Z,35.28
2017-05-16T04:29:17.369Z,35.85
2017-05-16T04:31:45.876Z,38.13
2017-05-16T04:34:14.384Z,31.12
2017-05-16T04:36:42.931Z,26.10
2017-05-16T04:39:11.433Z,22.45
2017-05-16T04:41:39.940Z,22.45
2017-05-16T04:44:08.484Z,22.93
2017-05-16T04:46:36.988Z,22.80
2017-05-16T04:49:05.496Z,22.50
2017-05-16T04:51:34.042Z,19.93
2017-05-16T04:54:02.545Z,19.50
2017-05-16T04:56:31.094Z,18.20
2017-05-16T04:58:59.677Z,19.58
2017-05-16T05:01:28.188Z,18.00
2017-05-16T05:03:56.691Z,17.43
2017-05-16T05:06:25.231Z,16.62
2017-05-16T05:08:53.746Z,17.48
2017-05-16T05:11:22.248Z,18.08
2017-05-16T05:13:50.792Z,18.17
2017-05-16T05:16:19.295Z,17.17
2017-05-16T05:18:47.800Z,17.97
2017-05-16T05:21:16.347Z,19.42
2017-05-16T05:23:44.856Z,17.85
2017-05-16T05:26:13.364Z,20.37
2017-05-16T05:28:41.919Z,20.28
2017-05-16T05:31:10.455Z,18.98
2017-05-16T05:33:38.959Z,20.42
2017-05-16T05:36:07.502Z,21.15
2017-05-16T05:38:36.009Z,22.48
2017-05-16T05:41:04.522Z,21.12
2017-05-16T05:43:33.071Z,19.97
2017-05-16T05:46:01.572Z,22.98
2017-05-16T05:48:30.077Z,23.02
2017-05-16T05:50:58.625Z,25.20
2017-05-16T05:53:27.139Z,22.20
2017-05-16T05:55:55.639Z,21.02
2017-05-16T05:58:24.189Z,24.97
2017-05-16T06:00:52.694Z,23.40
2017-05-16T06:03:21.258Z,21.83
2017-05-16T06:05:49.811Z,35.75
2017-05-16T06:08:18.345Z,24.07
2017-05-16T06:10:46.850Z,28.62
2017-05-16T06:13:15.396Z,25.53
2017-05-16T06:15:43.920Z,27.05
2017-05-16T06:18:12.426Z,24.37
2017-05-16T06:20:40.988Z,23.80
2017-05-16T06:23:09.499Z,24.07
2017-05-16T06:25:38.005Z,21.72
2017-05-16T06:28:06.555Z,23.27
2017-05-16T06:30:35.059Z,21.23
2017-05-16T06:33:03.560Z,21.22
2017-05-16T06:35:32.103Z,21.57
2017-05-16T06:38:00.608Z,22.13
2017-05-16T06:40:29.109Z,19.55
2017-05-16T06:42:57.653Z,21.83
2017-05-16T06:45:26.156Z,19.60
2017-05-16T06:47:54.679Z,18.58
2017-05-16T06:50:23.227Z,20.42
2017-05-16T06:52:51.743Z,21.97
2017-05-16T06:55:20.253Z,23.03
2017-05-16T06:57:48.809Z,20.10
2017-05-16T07:00:17.315Z,20.68
2017-05-16T07:02:45.826Z,19.77
2017-05-16T07:05:14.627Z,18.05
2017-05-16T07:07:43.135Z,18.35
2017-05-16T07:10:11.648Z,17.03
2017-05-16T07:12:40.199Z,18.97
2017-05-16T07:15:08.699Z,18.58
2017-05-16T07:17:37.203Z,17.83
2017-05-16T07:20:05.751Z,18.10
2017-05-16T07:22:34.268Z,16.52
2017-05-16T07:25:02.779Z,16.58
2017-05-16T07:27:31.352Z,15.65
2017-05-16T07:29:59.864Z,15.12
2017-05-16T07:32:28.369Z,17.57
2017-05-16T07:34:56.920Z,17.02
2017-05-16T07:37:25.441Z,15.38
2017-05-16T07:39:53.946Z,15.02
2017-05-16T07:42:22.491Z,14.90
2017-05-16T07:44:50.996Z,12.98
2017-05-16T07:47:19.513Z,13.38
2017-05-16T07:49:48.054Z,14.62
2017-05-16T07:52:16.555Z,12.87
2017-05-16T07:54:45.055Z,12.47
2017-05-16T07:57:13.621Z,13.93
2017-05-16T07:59:42.129Z,12.03
2017-05-16T08:02:10.636Z,10.95
2017-05-16T08:04:39.184Z,10.77
2017-05-16T08:07:07.772Z,10.40
2017-05-16T08:09:36.276Z,10.82
2017-05-16T08:12:04.816Z,9.83
2017-05-16T08:14:33.316Z,11.62
2017-05-16T08:17:01.818Z,11.00
2017-05-16T08:19:30.356Z,10.33
2017-05-16T08:21:58.856Z,9.55
2017-05-16T08:24:27.352Z,11.53
2017-05-16T08:26:55.892Z,9.03
2017-05-16T08:29:24.393Z,9.05
2017-05-16T08:31:52.897Z,8.75
2017-05-16T08:34:21.441Z,8.92
2017-05-16T08:36:49.938Z,9.38
2017-05-16T08:39:18.439Z,12.05
2017-05-16T08:41:46.981Z,11.02
2017-05-16T08:44:15.500Z,13.72
2017-05-16T08:46:44.009Z,11.93
2017-05-16T08:49:12.551Z,11.63
2017-05-16T08:51:41.048Z,9.98
2017-05-16T08:54:09.553Z,10.82
2017-05-16T08:56:38.097Z,10.28
2017-05-16T08:59:06.601Z,11.58
2017-05-16T09:01:35.103Z,10.52
2017-05-16T09:04:03.637Z,8.70
2017-05-16T09:06:32.139Z,10.02
2017-05-16T09:09:00.649Z,10.62
2017-05-16T09:11:29.187Z,8.62
2017-05-16T09:13:57.683Z,9.77
2017-05-16T09:16:26.175Z,9.62
2017-05-16T09:18:54.712Z,8.97
2017-05-16T09:21:23.219Z,11.05
2017-05-16T09:23:51.712Z,9.08
2017-05-16T09:26:20.265Z,7.15
2017-05-16T09:28:48.765Z,6.77
2017-05-16T09:31:17.264Z,6.10
2017-05-16T09:33:45.933Z,7.00
2017-05-16T09:36:14.431Z,8.97
2017-05-16T09:38:42.932Z,8.82
2017-05-16T09:41:11.492Z,9.52
2017-05-16T09:43:39.984Z,9.07
2017-05-16T09:46:08.483Z,9.32
2017-05-16T09:48:37.045Z,10.20
2017-05-16T09:51:05.544Z,9.95
2017-05-16T09:53:34.039Z,7.83
2017-05-16T09:56:02.581Z,6.62
2017-05-16T09:58:31.084Z,7.22
2017-05-16T10:00:59.583Z,4.95
2017-05-16T10:03:28.124Z,5.90
2017-05-16T10:05:56.621Z,4.72
2017-05-16T10:08:25.124Z,4.80
2017-05-16T10:10:53.665Z,5.10
2017-05-16T10:13:22.167Z,4.75
2017-05-16T10:15:50.664Z,6.77
2017-05-16T10:18:19.200Z,7.27
2017-05-16T10:20:47.700Z,6.55
2017-05-16T10:23:16.196Z,5.57
2017-05-16T10:25:44.728Z,6.67
2017-05-16T10:28:13.229Z,6.62
2017-05-16T10:30:41.730Z,7.42
2017-05-16T10:33:10.265Z,6.45
2017-05-16T10:38:06.222Z,5.12
2017-05-16T10:40:34.774Z,6.12
2017-05-16T10:43:03.271Z,4.45
2017-05-16T10:45:31.780Z,4.93
2017-05-16T10:48:00.319Z,3.78
2017-05-16T10:50:28.823Z,4.18
2017-05-16T10:52:57.320Z,3.92
2017-05-16T10:55:26.068Z,5.03
2017-05-16T10:57:54.579Z,3.78
2017-05-16T11:00:23.080Z,4.77
2017-05-16T11:02:51.625Z,5.33
2017-05-16T11:05:20.129Z,5.30
2017-05-16T11:07:48.636Z,3.83
2017-05-16T11:10:17.172Z,4.80
2017-05-16T11:12:45.666Z,4.43
2017-05-16T11:15:14.166Z,4.03
2017-05-16T11:17:42.707Z,7.02
2017-05-16T11:20:11.206Z,4.52
2017-05-16T11:22:39.704Z,7.77
2017-05-16T11:25:08.240Z,6.15
2017-05-16T11:27:36.744Z,4.80
2017-05-16T11:30:05.265Z,7.32
2017-05-16T11:32:33.799Z,4.92
2017-05-16T11:35:02.299Z,4.75
2017-05-16T11:37:30.805Z,9.23
2017-05-16T11:39:59.340Z,5.42
2017-05-16T11:42:27.843Z,6.40
2017-05-16T11:44:56.338Z,5.93
2017-05-16T11:47:24.880Z,5.73
2017-05-16T11:49:53.372Z,7.37
2017-05-16T11:52:21.873Z,6.50
2017-05-16T11:54:50.413Z,4.80
2017-05-16T11:57:18.910Z,4.87
2017-05-16T11:59:47.410Z,5.55
2017-05-16T12:02:15.944Z,5.45
2017-05-16T12:04:44.441Z,8.92
2017-05-16T12:07:12.948Z,6.60
2017-05-16T12:09:41.486Z,4.97
2017-05-16T12:12:09.984Z,4.98
2017-05-16T12:14:38.485Z,4.60
2017-05-16T12:17:07.018Z,6.08
2017-05-16T12:19:35.517Z,7.37
2017-05-16T12:22:04.022Z,4.83
2017-05-16T12:24:32.571Z,5.22
2017-05-16T12:27:01.075Z,4.30
2017-05-16T12:29:29.573Z,4.63
2017-05-16T12:31:58.111Z,6.23
2017-05-16T12:34:26.610Z,4.42
2017-05-16T12:36:55.102Z,7.22
2017-05-16T12:39:23.642Z,7.53
2017-05-16T12:41:52.135Z,4.47
2017-05-16T12:44:20.641Z,4.32
2017-05-16T12:46:49.175Z,4.63
2017-05-16T12:49:17.673Z,4.30
2017-05-16T12:51:46.175Z,3.75
2017-05-16T12:54:14.725Z,5.97
2017-05-16T12:56:43.225Z,3.92
2017-05-16T12:59:11.734Z,3.65
2017-05-16T13:01:40.280Z,6.05
2017-05-16T13:04:08.776Z,7.52
2017-05-16T13:06:37.271Z,5.08
2017-05-16T13:09:05.804Z,4.62
2017-05-16T13:11:34.358Z,3.23
2017-05-16T13:14:02.856Z,3.55
2017-05-16T13:16:31.390Z,4.37
2017-05-16T13:18:59.907Z,5.10
2017-05-16T13:21:28.399Z,3.92
2017-05-16T13:23:56.940Z,2.98
2017-05-16T13:26:25.435Z,3.12
2017-05-16T13:28:53.932Z,3.23
2017-05-16T13:31:22.478Z,7.22
2017-05-16T13:33:50.977Z,2.98
2017-05-16T13:36:19.502Z,5.17
2017-05-16T13:38:48.051Z,6.13
2017-05-16T13:41:16.547Z,4.02
2017-05-16T13:43:45.041Z,3.08
2017-05-16T13:46:13.575Z,5.35
2017-05-16T13:48:42.074Z,2.75
2017-05-16T13:51:10.581Z,3.93
2017-05-16T13:53:39.124Z,2.88
2017-05-16T13:56:07.627Z,2.78
2017-05-16T13:58:36.121Z,3.55
2017-05-16T14:01:04.665Z,5.48
2017-05-16T14:03:33.169Z,3.60
2017-05-16T14:06:01.659Z,2.75
2017-05-16T14:08:30.199Z,2.60
2017-05-16T14:10:58.703Z,4.77
2017-05-16T14:13:27.199Z,5.18
2017-05-16T14:15:55.741Z,3.00
2017-05-16T14:18:24.236Z,4.33
2017-05-16T14:20:52.732Z,2.87
2017-05-16T14:23:21.269Z,3.08
2017-05-16T14:25:49.769Z,3.13
2017-05-16T14:28:18.272Z,2.75
2017-05-16T14:30:46.807Z,3.18
2017-05-16T14:33:15.299Z,3.73
2017-05-16T14:35:43.796Z,3.02
2017-05-16T14:38:12.337Z,3.53
2017-05-16T14:40:40.843Z,3.45
2017-05-16T14:43:09.363Z,7.30
2017-05-16T14:45:37.904Z,6.05
2017-05-16T14:48:06.401Z,3.87
2017-05-16T14:50:34.902Z,2.72
2017-05-16T14:53:03.440Z,3.03
2017-05-16T14:55:31.944Z,2.53
2017-05-16T14:58:00.443Z,2.68
2017-05-16T15:00:28.980Z,3.32
2017-05-16T15:02:57.476Z,3.47
2017-05-16T15:05:25.974Z,2.85
2017-05-16T15:07:54.539Z,4.95
2017-05-16T15:10:23.035Z,4.50
2017-05-16T15:12:51.537Z,2.85
2017-05-16T15:15:20.081Z,2.70
2017-05-16T15:17:48.579Z,5.08
2017-05-16T15:20:17.104Z,6.95
2017-05-16T15:22:45.641Z,2.82
2017-05-16T15:25:14.143Z,2.88
2017-05-16T15:27:42.655Z,1.82
2017-05-16T15:30:11.206Z,2.30
2017-05-16T15:32:39.703Z,2.72
2017-05-16T15:35:08.205Z,4.03
2017-05-16T15:37:36.745Z,2.68
2017-05-16T15:40:05.252Z,2.90
2017-05-16T15:42:33.749Z,6.35
2017-05-16T15:45:02.304Z,4.15
2017-05-16T15:47:30.803Z,2.48
2017-05-16T15:49:59.301Z,4.27
2017-05-16T15:52:27.844Z,3.40
2017-05-16T15:54:56.347Z,4.05
2017-05-16T15:57:24.851Z,3.08
2017-05-16T15:59:53.399Z,5.32
2017-05-16T16:02:21.900Z,7.78
2017-05-16T16:04:50.400Z,5.53
2017-05-16T16:07:18.943Z,4.75
2017-05-16T16:09:47.440Z,2.97
2017-05-16T16:12:15.935Z,3.68
2017-05-16T16:14:44.475Z,5.97
2017-05-16T16:17:12.983Z,2.92
2017-05-16T16:19:41.482Z,3.70
2017-05-16T16:22:10.051Z,3.85
2017-05-16T16:24:38.546Z,3.08
2017-05-16T16:27:07.044Z,2.72
2017-05-16T16:29:35.588Z,5.78
2017-05-16T16:32:04.087Z,4.40
2017-05-16T16:34:32.590Z,2.40
2017-05-16T16:37:01.125Z,2.67
2017-05-16T16:39:29.626Z,3.98
2017-05-16T16:41:58.120Z,4.22
2017-05-16T16:44:26.668Z,3.20
2017-05-16T16:46:55.170Z,4.98
2017-05-16T16:49:23.669Z,3.22
2017-05-16T16:51:51.445Z,3.12
2017-05-16T16:54:20.049Z,2.65
2017-05-16T16:56:48.560Z,2.37
2017-05-16T16:59:17.102Z,2.73
2017-05-16T17:01:45.604Z,3.03
2017-05-16T17:04:14.105Z,4.72
2017-05-16T17:06:42.685Z,3.65
2017-05-16T17:09:11.180Z,7.17
2017-05-16T17:11:39.680Z,4.12
2017-05-16T17:14:08.227Z,4.40
2017-05-16T17:16:36.728Z,5.95
2017-05-16T17:19:05.254Z,3.82
2017-05-16T17:21:33.791Z,3.60
2017-05-16T17:24:02.288Z,3.32
2017-05-16T17:26:30.784Z,5.32
2017-05-16T17:28:59.322Z,5.67
2017-05-16T17:31:27.823Z,4.63
2017-05-16T17:33:56.323Z,4.85
2017-05-16T17:36:24.864Z,4.22
2017-05-16T17:38:53.510Z,3.85
2017-05-16T17:41:22.014Z,3.52
2017-05-16T17:43:50.555Z,6.08
2017-05-16T17:46:19.063Z,4.03
2017-05-16T17:48:47.880Z,5.90
2017-05-16T17:51:16.437Z,5.15
2017-05-16T17:53:44.935Z,3.67
2017-05-16T17:56:13.432Z,9.50
2017-05-16T17:58:41.980Z,4.87
2017-05-16T18:01:10.476Z,5.77
2017-05-16T18:03:38.974Z,3.27
2017-05-16T18:06:07.512Z,4.57
2017-05-16T18:08:36.008Z,11.45
2017-05-16T18:11:04.517Z,5.80
2017-05-16T18:13:33.055Z,4.13
2017-05-16T18:16:01.551Z,4.10
2017-05-16T18:18:30.052Z,8.23
2017-05-16T18:20:58.604Z,8.05
2017-05-16T18:23:27.136Z,7.87
2017-05-16T18:25:55.654Z,4.55
2017-05-16T18:28:24.211Z,6.43
2017-05-16T18:30:52.769Z,9.87
2017-05-16T18:33:21.380Z,5.30
2017-05-16T18:35:50.060Z,7.17
2017-05-16T18:38:18.561Z,4.75
2017-05-16T18:40:47.179Z,7.03
2017-05-16T18:43:15.722Z,11.52
2017-05-16T18:45:44.220Z,7.57
2017-05-16T18:48:12.719Z,4.85
2017-05-16T18:50:41.898Z,5.82
2017-05-16T18:55:48.012Z,6.75
2017-05-16T18:58:16.504Z,8.00
2017-05-16T19:00:45.199Z,5.87
2017-05-16T19:03:13.747Z,8.70
2017-05-16T19:05:42.256Z,7.87
2017-05-16T19:08:10.983Z,9.72
2017-05-16T19:10:39.614Z,8.20
2017-05-16T19:13:08.145Z,6.83
2017-05-16T19:15:36.650Z,7.90
2017-05-16T19:18:05.200Z,7.58
2017-05-16T19:20:33.717Z,7.85
2017-05-16T19:23:02.401Z,10.73
2017-05-16T19:25:31.806Z,11.23
2017-05-16T19:28:00.427Z,9.68
2017-05-16T19:30:28.945Z,9.75
2017-05-16T19:32:57.488Z,12.15
2017-05-16T19:35:26.054Z,8.45
2017-05-16T19:37:54.567Z,9.85
2017-05-16T19:40:23.236Z,9.18
2017-05-16T19:42:51.870Z,10.35
2017-05-16T19:45:20.379Z,9.07
2017-05-16T19:47:48.923Z,8.65
2017-05-16T19:50:17.425Z,14.98
2017-05-16T19:52:45.930Z,8.88
2017-05-16T19:55:14.476Z,9.87
2017-05-16T19:57:42.972Z,9.15
2017-05-16T20:00:11.475Z,8.53
2017-05-16T20:02:40.014Z,9.85
2017-05-16T20:05:08.525Z,14.38
2017-05-16T20:07:37.056Z,10.43
2017-05-16T20:10:05.609Z,10.82
2017-05-16T20:12:34.121Z,12.45
2017-05-16T20:15:02.653Z,13.53
2017-05-16T20:17:31.197Z,9.08
2017-05-16T20:19:59.695Z,15.97
2017-05-16T20:22:28.199Z,10.93
2017-05-16T20:24:56.743Z,9.95
2017-05-16T20:27:25.249Z,12.62
2017-05-16T20:29:53.756Z,12.22
2017-05-16T20:32:22.321Z,15.38
2017-05-16T20:34:50.820Z,9.70
2017-05-16T20:37:19.356Z,13.53
2017-05-16T20:39:47.899Z,10.32
2017-05-16T20:42:16.397Z,9.78
2017-05-16T20:44:44.904Z,14.57
2017-05-16T20:47:13.593Z,13.60
2017-05-16T20:49:42.096Z,10.43
2017-05-16T20:52:10.620Z,12.13
2017-05-16T20:54:39.163Z,13.60
2017-05-16T20:57:07.663Z,12.35
2017-05-16T20:59:36.159Z,14.57
2017-05-16T21:02:04.705Z,11.37
2017-05-16T21:04:33.209Z,12.30
2017-05-16T21:07:01.733Z,13.33
2017-05-16T21:09:30.275Z,10.62
2017-05-16T21:11:58.776Z,10.42
2017-05-16T21:14:27.272Z,11.70
2017-05-16T21:16:55.821Z,9.13
2017-05-16T21:19:24.321Z,11.18
2017-05-16T21:21:52.825Z,11.42
2017-05-16T21:24:21.395Z,12.25
2017-05-16T21:26:49.891Z,9.03
2017-05-16T21:29:18.394Z,9.95
2017-05-16T21:31:46.929Z,9.23
2017-05-16T21:34:15.429Z,9.38
2017-05-16T21:36:43.931Z,9.20
2017-05-16T21:39:12.467Z,7.95
2017-05-16T21:41:40.967Z,12.73
2017-05-16T21:44:09.458Z,9.53
2017-05-16T21:46:38.000Z,11.65
2017-05-16T21:49:06.512Z,11.58
2017-05-16T21:51:35.012Z,10.90
2017-05-16T21:54:03.560Z,10.10
2017-05-16T21:56:32.067Z,10.08
2017-05-16T21:59:00.605Z,10.88
2017-05-16T22:01:29.153Z,14.08
2017-05-16T22:03:57.659Z,10.47
2017-05-16T22:06:26.160Z,11.55
2017-05-16T22:08:54.701Z,10.73
2017-05-16T22:11:23.203Z,11.10
2017-05-16T22:13:51.700Z,9.98
2017-05-16T22:16:20.239Z,12.08
2017-05-16T22:18:48.751Z,10.48
2017-05-16T22:21:17.256Z,13.20
2017-05-16T22:23:45.796Z,11.58
2017-05-16T22:26:14.295Z,10.40
2017-05-16T22:28:42.796Z,14.45
2017-05-16T22:31:11.348Z,13.78
2017-05-16T22:33:39.852Z,10.83
2017-05-16T22:36:08.361Z,12.67
2017-05-16T22:38:36.915Z,13.38
2017-05-16T22:41:05.456Z,10.98
2017-05-16T22:43:33.956Z,12.32
2017-05-16T22:46:02.505Z,12.63
2017-05-16T22:48:31.011Z,11.83
2017-05-16T22:50:59.511Z,15.30
2017-05-16T22:53:28.060Z,17.42
2017-05-16T22:55:56.562Z,12.28
2017-05-16T22:58:25.068Z,12.07
2017-05-16T23:00:53.624Z,11.38
2017-05-16T23:03:22.130Z,16.35
2017-05-16T23:05:50.649Z,13.63
2017-05-16T23:08:19.204Z,15.70
2017-05-16T23:10:47.715Z,12.93
2017-05-16T23:13:16.220Z,15.10
2017-05-16T23:15:44.768Z,13.00
2017-05-16T23:18:13.273Z,17.45
2017-05-16T23:20:41.776Z,17.65
2017-05-16T23:23:10.341Z,12.90
2017-05-16T23:25:38.853Z,15.90
2017-05-16T23:28:07.356Z,13.20
2017-05-16T23:30:35.900Z,17.68
2017-05-16T23:33:04.411Z,13.90
2017-05-16T23:35:32.911Z,13.65
2017-05-16T23:38:01.456Z,14.85
2017-05-16T23:40:29.960Z,14.00
2017-05-16T23:42:58.469Z,16.77
2017-05-16T23:45:27.016Z,13.35
2017-05-16T23:47:55.511Z,15.90
2017-05-16T23:50:24.011Z,16.72
2017-05-16T23:52:52.556Z,14.72
2017-05-16T23:55:21.060Z,15.50
2017-05-16T23:57:49.559Z,16.92
